createdAt,value
2018-03-26T00:00:56.205Z,77.52
2018-03-26T00:01:56.230Z,77.81
2018-03-26T00:02:56.243Z,77.71
2018-03-26T00:03:56.271Z,77.90
2018-03-26T00:04:56.288Z,77.62
2018-03-26T00:05:56.270Z,77.75
2018-03-26T00:06:56.288Z,77.28
2018-03-26T00:07:56.316Z,77.37
2018-03-26T00:08:56.373Z,77.94
2018-03-26T00:09:56.345Z,77.56
2018-03-26T00:10:56.348Z,77.37
2018-03-26T00:11:56.374Z,77.47
2018-03-26T00:12:56.385Z,77.24
2018-03-26T00:13:56.388Z,77.56
2018-03-26T00:14:56.405Z,77.84
2018-03-26T00:15:56.457Z,77.28
2018-03-26T00:16:56.456Z,77.28
2018-03-26T00:17:56.450Z,77.37
2018-03-26T00:18:56.489Z,77.18
2018-03-26T00:19:56.478Z,77.37
2018-03-26T00:20:56.569Z,77.66
2018-03-26T00:21:56.504Z,77.37
2018-03-26T00:22:56.527Z,77.75
2018-03-26T00:23:56.558Z,77.75
2018-03-26T00:24:56.552Z,77.66
2018-03-26T00:25:56.578Z,77.94
2018-03-26T00:26:56.573Z,77.75
2018-03-26T00:27:56.597Z,77.75
2018-03-26T00:28:56.628Z,77.75
2018-03-26T00:29:56.657Z,77.75
2018-03-26T00:30:56.674Z,78.23
2018-03-26T00:31:56.655Z,78.13
2018-03-26T00:32:56.682Z,77.66
2018-03-26T00:33:56.694Z,77.18
2018-03-26T00:34:56.703Z,77.37
2018-03-26T00:35:56.709Z,77.37
2018-03-26T00:36:56.730Z,77.18
2018-03-26T00:37:56.750Z,77.56
2018-03-26T00:38:56.750Z,77.18
2018-03-26T00:39:56.767Z,77.56
2018-03-26T00:40:56.815Z,77.18
2018-03-26T00:41:56.803Z,77.28
2018-03-26T00:42:56.805Z,77.37
2018-03-26T00:43:56.824Z,76.99
2018-03-26T00:44:56.861Z,76.80
2018-03-26T00:45:56.872Z,76.71
2018-03-26T00:46:56.877Z,76.90
2018-03-26T00:47:56.891Z,76.80
2018-03-26T00:48:56.905Z,76.90
2018-03-26T00:49:56.923Z,76.90
2018-03-26T00:50:56.928Z,76.80
2018-03-26T00:51:57.006Z,76.99
2018-03-26T00:52:56.968Z,77.75
2018-03-26T00:53:56.975Z,77.52
2018-03-26T00:54:56.997Z,78.28
2018-03-26T00:55:57.006Z,78.85
2018-03-26T00:56:57.044Z,79.71
2018-03-26T00:57:57.034Z,79.99
2018-03-26T00:58:57.104Z,80.08
2018-03-26T00:59:57.061Z,79.99
2018-03-26T01:00:57.113Z,80.84
2018-03-26T01:01:57.108Z,81.41
2018-03-26T01:02:57.121Z,80.94
2018-03-26T01:03:57.195Z,79.84
2018-03-26T01:04:57.130Z,79.74
2018-03-26T01:05:57.167Z,79.17
2018-03-26T01:06:57.180Z,79.17
2018-03-26T01:07:57.210Z,78.51
2018-03-26T01:08:57.196Z,78.42
2018-03-26T01:09:57.249Z,78.99
2018-03-26T01:10:57.257Z,79.36
2018-03-26T01:11:57.237Z,79.17
2018-03-26T01:12:57.257Z,79.17
2018-03-26T01:13:57.271Z,78.32
2018-03-26T01:14:57.291Z,78.03
2018-03-26T01:15:57.290Z,78.13
2018-03-26T01:16:57.314Z,77.75
2018-03-26T01:17:57.327Z,77.94
2018-03-26T01:18:57.370Z,77.56
2018-03-26T01:19:57.353Z,77.84
2018-03-26T01:20:57.365Z,77.75
2018-03-26T01:21:57.426Z,78.32
2018-03-26T01:22:57.396Z,77.09
2018-03-26T01:23:57.423Z,77.47
2018-03-26T01:24:57.454Z,77.94
2018-03-26T01:25:57.470Z,78.03
2018-03-26T01:26:57.472Z,78.03
2018-03-26T01:27:57.478Z,78.03
2018-03-26T01:28:57.517Z,78.03
2018-03-26T01:29:57.503Z,78.13
2018-03-26T01:30:57.532Z,77.75
2018-03-26T01:31:57.532Z,77.94
2018-03-26T01:32:57.552Z,77.75
2018-03-26T01:33:57.578Z,78.23
2018-03-26T01:34:57.599Z,77.84
2018-03-26T01:35:57.628Z,77.75
2018-03-26T01:36:57.609Z,77.75
2018-03-26T01:37:57.654Z,78.13
2018-03-26T01:38:57.627Z,78.80
2018-03-26T01:39:57.652Z,78.89
2018-03-26T01:40:57.693Z,79.94
2018-03-26T01:41:57.725Z,79.94
2018-03-26T01:42:57.688Z,79.94
2018-03-26T01:43:57.723Z,80.65
2018-03-26T01:44:57.734Z,80.56
2018-03-26T01:45:57.751Z,81.13
2018-03-26T01:46:57.755Z,80.56
2018-03-26T01:47:57.774Z,81.32
2018-03-26T01:48:57.780Z,81.23
2018-03-26T01:49:57.805Z,81.98
2018-03-26T01:50:57.839Z,81.41
2018-03-26T01:51:57.818Z,81.51
2018-03-26T01:52:57.868Z,80.98
2018-03-26T01:53:57.852Z,81.07
2018-03-26T01:54:57.871Z,80.79
2018-03-26T01:55:57.884Z,80.03
2018-03-26T01:56:57.910Z,80.03
2018-03-26T01:57:57.920Z,80.13
2018-03-26T01:58:58.079Z,80.41
2018-03-26T01:59:57.953Z,80.22
2018-03-26T02:00:57.963Z,79.94
2018-03-26T02:01:57.968Z,80.51
2018-03-26T02:02:58.004Z,80.13
2018-03-26T02:03:58.003Z,79.36
2018-03-26T02:04:58.040Z,79.94
2018-03-26T02:05:58.043Z,79.55
2018-03-26T02:06:58.047Z,80.13
2018-03-26T02:07:58.062Z,79.55
2018-03-26T02:08:58.095Z,79.65
2018-03-26T02:09:58.091Z,79.36
2018-03-26T02:10:58.136Z,78.99
2018-03-26T02:11:58.126Z,79.17
2018-03-26T02:12:58.140Z,78.70
2018-03-26T02:13:58.152Z,78.70
2018-03-26T02:14:58.207Z,79.08
2018-03-26T02:15:58.179Z,78.23
2018-03-26T02:16:58.196Z,78.42
2018-03-26T02:17:58.229Z,78.89
2018-03-26T02:18:58.227Z,78.89
2018-03-26T02:19:58.236Z,78.61
2018-03-26T02:20:58.276Z,78.61
2018-03-26T02:21:58.285Z,78.99
2018-03-26T02:22:58.380Z,78.80
2018-03-26T02:23:58.315Z,78.99
2018-03-26T02:24:58.314Z,79.46
2018-03-26T02:25:58.350Z,79.46
2018-03-26T02:26:58.381Z,79.84
2018-03-26T02:27:58.358Z,79.84
2018-03-26T02:28:58.365Z,80.03
2018-03-26T02:29:58.396Z,80.13
2018-03-26T02:30:58.403Z,79.84
2018-03-26T02:31:58.415Z,80.03
2018-03-26T02:32:58.434Z,79.84
2018-03-26T02:33:58.445Z,79.74
2018-03-26T02:34:58.465Z,80.03
2018-03-26T02:35:58.481Z,79.84
2018-03-26T02:36:58.488Z,79.74
2018-03-26T02:37:58.514Z,79.17
2018-03-26T02:38:58.526Z,79.27
2018-03-26T02:39:58.527Z,79.94
2018-03-26T02:40:58.570Z,80.79
2018-03-26T02:41:58.586Z,80.13
2018-03-26T02:42:58.579Z,80.41
2018-03-26T02:43:58.607Z,80.51
2018-03-26T02:44:58.613Z,80.51
2018-03-26T02:45:58.630Z,80.51
2018-03-26T02:46:58.643Z,80.22
2018-03-26T02:47:58.663Z,80.03
2018-03-26T02:48:58.679Z,80.26
2018-03-26T02:49:58.711Z,80.45
2018-03-26T02:50:58.716Z,80.13
2018-03-26T02:51:58.735Z,80.79
2018-03-26T02:52:58.748Z,81.45
2018-03-26T02:53:58.737Z,81.65
2018-03-26T02:54:58.756Z,81.74
2018-03-26T02:55:58.766Z,82.12
2018-03-26T02:56:58.793Z,81.65
2018-03-26T02:57:58.805Z,82.55
2018-03-26T02:58:58.852Z,83.50
2018-03-26T02:59:58.845Z,83.83
2018-03-26T03:00:58.861Z,82.78
2018-03-26T03:01:58.883Z,81.84
2018-03-26T03:02:58.873Z,81.45
2018-03-26T03:03:58.903Z,81.45
2018-03-26T03:04:58.911Z,80.98
2018-03-26T03:05:58.915Z,80.41
2018-03-26T03:06:58.951Z,79.94
2018-03-26T03:07:58.981Z,79.94
2018-03-26T03:08:58.965Z,79.84
2018-03-26T03:09:58.977Z,80.03
2018-03-26T03:10:58.989Z,79.60
2018-03-26T03:11:59.021Z,79.31
2018-03-26T03:12:59.053Z,79.41
2018-03-26T03:13:59.054Z,80.13
2018-03-26T03:14:59.049Z,79.55
2018-03-26T03:15:59.071Z,79.46
2018-03-26T03:16:59.098Z,80.13
2018-03-26T03:17:59.101Z,80.22
2018-03-26T03:18:59.122Z,79.94
2018-03-26T03:19:59.151Z,80.03
2018-03-26T03:20:59.153Z,80.13
2018-03-26T03:21:59.178Z,80.79
2018-03-26T03:22:59.199Z,81.45
2018-03-26T03:23:59.185Z,80.88
2018-03-26T03:24:59.213Z,81.07
2018-03-26T03:25:59.204Z,80.60
2018-03-26T03:26:59.242Z,79.94
2018-03-26T03:27:59.244Z,79.55
2018-03-26T03:28:59.286Z,79.74
2018-03-26T03:29:59.287Z,79.50
2018-03-26T03:30:59.349Z,79.22
2018-03-26T03:31:59.300Z,79.41
2018-03-26T03:32:59.312Z,79.41
2018-03-26T03:33:59.350Z,79.22
2018-03-26T03:34:59.345Z,79.12
2018-03-26T03:35:59.369Z,78.27
2018-03-26T03:36:59.373Z,79.12
2018-03-26T03:37:59.384Z,78.93
2018-03-26T03:38:59.405Z,79.50
2018-03-26T03:39:59.420Z,79.31
2018-03-26T03:40:59.428Z,78.93
2018-03-26T03:41:59.451Z,79.03
2018-03-26T03:42:59.460Z,79.22
2018-03-26T03:43:59.504Z,79.03
2018-03-26T03:44:59.489Z,79.03
2018-03-26T03:45:59.523Z,78.93
2018-03-26T03:46:59.532Z,79.22
2018-03-26T03:47:59.535Z,78.36
2018-03-26T03:48:59.620Z,79.03
2018-03-26T03:49:59.583Z,79.22
2018-03-26T03:50:59.615Z,79.31
2018-03-26T03:51:59.597Z,79.41
2018-03-26T03:52:59.625Z,80.45
2018-03-26T03:53:59.620Z,79.69
2018-03-26T03:54:59.694Z,79.60
2018-03-26T03:55:59.655Z,80.26
2018-03-26T03:56:59.695Z,79.97
2018-03-26T03:57:59.694Z,80.79
2018-03-26T03:58:59.751Z,80.69
2018-03-26T03:59:59.716Z,81.65
2018-03-26T04:00:59.731Z,81.84
2018-03-26T04:01:59.757Z,82.03
2018-03-26T04:02:59.764Z,83.07
2018-03-26T04:03:59.839Z,82.78
2018-03-26T04:04:59.806Z,81.74
2018-03-26T04:05:59.805Z,82.03
2018-03-26T04:06:59.824Z,81.21
2018-03-26T04:07:59.831Z,80.93
2018-03-26T04:08:59.849Z,80.74
2018-03-26T04:09:59.863Z,81.17
2018-03-26T04:10:59.886Z,81.55
2018-03-26T04:11:59.909Z,82.12
2018-03-26T04:12:59.912Z,81.93
2018-03-26T04:13:59.920Z,81.84
2018-03-26T04:14:59.938Z,80.88
2018-03-26T04:15:59.975Z,80.69
2018-03-26T04:16:59.967Z,80.22
2018-03-26T04:17:59.994Z,80.41
2018-03-26T04:18:59.989Z,80.26
2018-03-26T04:20:00.025Z,79.97
2018-03-26T04:21:00.035Z,79.94
2018-03-26T04:22:00.046Z,80.03
2018-03-26T04:23:00.061Z,80.69
2018-03-26T04:24:00.078Z,80.88
2018-03-26T04:25:00.086Z,81.45
2018-03-26T04:26:00.098Z,81.26
2018-03-26T04:27:00.155Z,81.45
2018-03-26T04:28:00.127Z,81.26
2018-03-26T04:29:00.139Z,80.74
2018-03-26T04:30:00.171Z,80.60
2018-03-26T04:31:00.190Z,80.07
2018-03-26T04:32:00.205Z,80.26
2018-03-26T04:33:00.200Z,80.45
2018-03-26T04:34:00.221Z,80.16
2018-03-26T04:35:00.229Z,79.88
2018-03-26T04:36:00.242Z,79.60
2018-03-26T04:37:00.282Z,79.69
2018-03-26T04:38:00.273Z,79.50
2018-03-26T04:39:00.314Z,79.88
2018-03-26T04:40:00.365Z,79.12
2018-03-26T04:41:00.328Z,79.22
2018-03-26T04:42:00.328Z,79.50
2018-03-26T04:43:00.345Z,79.88
2018-03-26T04:44:00.397Z,80.07
2018-03-26T04:45:00.379Z,79.41
2018-03-26T04:46:00.391Z,79.60
2018-03-26T04:47:00.423Z,80.13
2018-03-26T04:48:00.432Z,80.13
2018-03-26T04:49:00.443Z,80.83
2018-03-26T04:50:00.482Z,81.45
2018-03-26T04:51:00.490Z,81.07
2018-03-26T04:52:00.505Z,80.88
2018-03-26T04:53:00.564Z,80.74
2018-03-26T04:54:00.527Z,80.93
2018-03-26T04:55:00.539Z,80.07
2018-03-26T04:56:00.570Z,80.45
2018-03-26T04:57:00.566Z,80.07
2018-03-26T04:58:00.571Z,80.07
2018-03-26T04:59:00.594Z,80.16
2018-03-26T05:00:00.611Z,80.07
2018-03-26T05:01:00.618Z,79.88
2018-03-26T05:02:00.650Z,80.35
2018-03-26T05:03:00.653Z,80.16
2018-03-26T05:04:00.680Z,80.64
2018-03-26T05:05:00.677Z,81.02
2018-03-26T05:06:00.728Z,80.88
2018-03-26T05:07:00.717Z,81.84
2018-03-26T05:08:00.755Z,82.21
2018-03-26T05:09:00.756Z,81.74
2018-03-26T05:10:00.832Z,82.31
2018-03-26T05:11:00.767Z,82.40
2018-03-26T05:12:00.791Z,82.12
2018-03-26T05:13:00.807Z,81.74
2018-03-26T05:14:00.823Z,82.03
2018-03-26T05:15:00.820Z,82.78
2018-03-26T05:16:00.848Z,82.69
2018-03-26T05:17:00.860Z,82.69
2018-03-26T05:18:00.913Z,82.50
2018-03-26T05:19:00.897Z,81.74
2018-03-26T05:20:00.929Z,82.26
2018-03-26T05:21:00.930Z,80.93
2018-03-26T05:22:00.944Z,81.02
2018-03-26T05:23:00.956Z,80.93
2018-03-26T05:24:00.976Z,80.26
2018-03-26T05:25:01.029Z,81.02
2018-03-26T05:26:00.989Z,80.74
2018-03-26T05:27:01.012Z,81.02
2018-03-26T05:28:01.047Z,80.83
2018-03-26T05:29:01.038Z,81.68
2018-03-26T05:30:01.060Z,82.97
2018-03-26T05:31:01.080Z,82.97
2018-03-26T05:32:01.080Z,82.69
2018-03-26T05:33:01.103Z,82.40
2018-03-26T05:34:01.143Z,82.03
2018-03-26T05:35:01.132Z,82.07
2018-03-26T05:36:01.170Z,81.59
2018-03-26T05:37:01.168Z,81.21
2018-03-26T05:38:01.207Z,81.21
2018-03-26T05:39:01.209Z,81.49
2018-03-26T05:40:01.236Z,81.59
2018-03-26T05:41:01.239Z,81.12
2018-03-26T05:42:01.226Z,81.02
2018-03-26T05:43:01.245Z,80.93
2018-03-26T05:44:01.275Z,81.49
2018-03-26T05:45:01.294Z,80.93
2018-03-26T05:46:01.299Z,81.68
2018-03-26T05:47:01.346Z,81.78
2018-03-26T05:48:01.325Z,82.59
2018-03-26T05:49:01.332Z,83.07
2018-03-26T05:50:01.351Z,83.45
2018-03-26T05:51:01.357Z,82.97
2018-03-26T05:52:01.385Z,83.07
2018-03-26T05:53:01.449Z,82.78
2018-03-26T05:54:01.407Z,82.69
2018-03-26T05:55:01.444Z,82.54
2018-03-26T05:56:01.451Z,82.21
2018-03-26T05:57:01.459Z,83.01
2018-03-26T05:58:01.466Z,82.45
2018-03-26T05:59:01.482Z,82.82
2018-03-26T06:00:01.498Z,82.26
2018-03-26T06:01:01.516Z,81.78
2018-03-26T06:02:01.528Z,81.97
2018-03-26T06:03:01.541Z,81.97
2018-03-26T06:04:01.571Z,81.84
2018-03-26T06:05:01.578Z,82.40
2018-03-26T06:06:01.590Z,83.16
2018-03-26T06:07:01.623Z,82.88
2018-03-26T06:08:01.682Z,82.69
2018-03-26T06:09:01.630Z,83.73
2018-03-26T06:10:01.641Z,83.64
2018-03-26T06:11:01.661Z,83.64
2018-03-26T06:12:01.682Z,83.39
2018-03-26T06:13:01.686Z,82.64
2018-03-26T06:14:01.699Z,81.68
2018-03-26T06:15:01.726Z,81.21
2018-03-26T06:16:01.734Z,81.02
2018-03-26T06:17:01.759Z,81.21
2018-03-26T06:18:01.775Z,80.93
2018-03-26T06:19:01.779Z,80.83
2018-03-26T06:20:01.800Z,80.16
2018-03-26T06:21:01.807Z,79.63
2018-03-26T06:22:01.820Z,79.92
2018-03-26T06:23:01.893Z,78.88
2018-03-26T06:24:01.856Z,78.97
2018-03-26T06:25:01.882Z,79.60
2018-03-26T06:26:01.886Z,79.79
2018-03-26T06:27:01.913Z,80.07
2018-03-26T06:28:01.917Z,80.45
2018-03-26T06:29:01.983Z,80.74
2018-03-26T06:30:01.979Z,80.16
2018-03-26T06:31:02.059Z,80.74
2018-03-26T06:32:01.979Z,80.55
2018-03-26T06:33:02.006Z,80.07
2018-03-26T06:34:02.034Z,79.88
2018-03-26T06:35:02.045Z,80.07
2018-03-26T06:36:02.041Z,79.79
2018-03-26T06:37:02.049Z,79.69
2018-03-26T06:38:02.097Z,79.69
2018-03-26T06:39:02.088Z,80.07
2018-03-26T06:40:02.125Z,79.60
2018-03-26T06:41:02.121Z,79.97
2018-03-26T06:42:02.141Z,80.93
2018-03-26T06:43:02.177Z,80.93
2018-03-26T06:44:02.184Z,80.21
2018-03-26T06:45:02.176Z,79.16
2018-03-26T06:46:02.203Z,78.78
2018-03-26T06:47:02.245Z,78.30
2018-03-26T06:48:02.270Z,77.77
2018-03-26T06:49:02.241Z,77.11
2018-03-26T06:50:02.251Z,76.82
2018-03-26T06:51:02.281Z,76.73
2018-03-26T06:52:02.282Z,77.11
2018-03-26T06:53:02.332Z,76.35
2018-03-26T06:54:02.332Z,76.20
2018-03-26T06:55:02.349Z,75.62
2018-03-26T06:56:02.352Z,75.24
2018-03-26T06:57:02.367Z,75.34
2018-03-26T06:58:02.414Z,75.53
2018-03-26T06:59:02.401Z,75.34
2018-03-26T07:00:02.428Z,74.96
2018-03-26T07:01:02.434Z,73.72
2018-03-26T07:02:02.458Z,74.39
2018-03-26T07:03:02.467Z,73.91
2018-03-26T07:04:02.476Z,74.80
2018-03-26T07:05:02.491Z,74.10
2018-03-26T07:06:02.526Z,73.95
2018-03-26T07:07:02.549Z,73.44
2018-03-26T07:08:02.549Z,73.44
2018-03-26T07:09:02.558Z,74.20
2018-03-26T07:10:02.588Z,74.77
2018-03-26T07:11:02.601Z,75.05
2018-03-26T07:12:02.607Z,75.05
2018-03-26T07:13:02.634Z,74.71
2018-03-26T07:14:02.634Z,74.90
2018-03-26T07:15:02.696Z,74.14
2018-03-26T07:16:02.679Z,74.71
2018-03-26T07:17:02.705Z,74.52
2018-03-26T07:18:02.723Z,74.77
2018-03-26T07:19:02.724Z,75.62
2018-03-26T07:20:02.742Z,75.28
2018-03-26T07:21:02.778Z,75.28
2018-03-26T07:22:02.775Z,74.90
2018-03-26T07:23:02.803Z,74.62
2018-03-26T07:24:02.803Z,74.14
2018-03-26T07:25:02.847Z,73.28
2018-03-26T07:26:02.836Z,73.85
2018-03-26T07:27:02.859Z,73.95
2018-03-26T07:28:02.871Z,73.61
2018-03-26T07:29:02.903Z,72.94
2018-03-26T07:30:02.926Z,72.85
2018-03-26T07:31:02.935Z,72.56
2018-03-26T07:32:02.937Z,72.37
2018-03-26T07:33:02.960Z,73.03
2018-03-26T07:34:03.001Z,72.94
2018-03-26T07:35:03.003Z,72.78
2018-03-26T07:36:03.006Z,71.07
2018-03-26T07:37:03.017Z,71.45
2018-03-26T07:38:03.035Z,70.72
2018-03-26T07:39:03.053Z,70.15
2018-03-26T07:40:03.064Z,70.02
2018-03-26T07:41:03.108Z,70.34
2018-03-26T07:42:03.141Z,70.50
2018-03-26T07:43:03.141Z,71.73
2018-03-26T07:44:03.158Z,71.45
2018-03-26T07:45:03.206Z,70.92
2018-03-26T07:46:03.176Z,70.31
2018-03-26T07:47:03.195Z,70.97
2018-03-26T07:48:03.219Z,70.50
2018-03-26T07:49:03.234Z,71.07
2018-03-26T07:50:03.267Z,71.93
2018-03-26T07:51:03.295Z,71.17
2018-03-26T07:52:03.280Z,70.88
2018-03-26T07:53:03.307Z,70.44
2018-03-26T07:54:03.327Z,70.34
2018-03-26T07:55:03.330Z,70.31
2018-03-26T07:56:03.353Z,70.78
2018-03-26T07:57:03.382Z,71.17
2018-03-26T07:58:03.387Z,71.17
2018-03-26T07:59:03.391Z,71.64
2018-03-26T08:00:03.426Z,71.36
2018-03-26T08:01:03.438Z,71.26
2018-03-26T08:02:03.475Z,72.17
2018-03-26T08:03:03.472Z,73.13
2018-03-26T08:04:03.502Z,72.56
2018-03-26T08:05:03.526Z,72.75
2018-03-26T08:06:03.527Z,72.56
2018-03-26T08:07:03.540Z,72.60
2018-03-26T08:08:03.555Z,72.50
2018-03-26T08:09:03.574Z,72.75
2018-03-26T08:10:03.602Z,73.80
2018-03-26T08:11:03.637Z,74.08
2018-03-26T08:12:03.660Z,74.65
2018-03-26T08:13:03.663Z,74.18
2018-03-26T08:14:03.673Z,74.37
2018-03-26T08:15:03.673Z,74.37
2018-03-26T08:16:03.700Z,73.70
2018-03-26T08:17:03.716Z,74.37
2018-03-26T08:18:03.727Z,74.75
2018-03-26T08:19:03.742Z,74.75
2018-03-26T08:20:03.772Z,75.04
2018-03-26T08:21:03.762Z,74.65
2018-03-26T08:22:03.789Z,74.56
2018-03-26T08:23:03.815Z,74.18
2018-03-26T08:24:03.831Z,74.08
2018-03-26T08:25:03.860Z,74.46
2018-03-26T08:26:03.849Z,74.75
2018-03-26T08:27:03.872Z,74.84
2018-03-26T08:28:03.883Z,75.51
2018-03-26T08:29:03.917Z,75.85
2018-03-26T08:30:03.938Z,75.85
2018-03-26T08:31:03.984Z,75.76
2018-03-26T08:32:03.958Z,75.79
2018-03-26T08:33:03.988Z,74.56
2018-03-26T08:34:03.985Z,73.99
2018-03-26T08:35:04.006Z,72.69
2018-03-26T08:36:04.038Z,71.83
2018-03-26T08:37:04.041Z,71.36
2018-03-26T08:38:04.075Z,70.92
2018-03-26T08:39:04.074Z,70.63
2018-03-26T08:40:04.098Z,71.93
2018-03-26T08:41:04.118Z,72.69
2018-03-26T08:42:04.123Z,72.34
2018-03-26T08:43:04.145Z,71.11
2018-03-26T08:44:04.172Z,71.30
2018-03-26T08:45:04.167Z,70.38
2018-03-26T08:46:04.198Z,70.38
2018-03-26T08:47:04.217Z,69.27
2018-03-26T08:48:04.237Z,68.41
2018-03-26T08:49:04.242Z,68.18
2018-03-26T08:50:04.335Z,68.47
2018-03-26T08:51:04.277Z,68.41
2018-03-26T08:52:04.308Z,67.83
2018-03-26T08:53:04.309Z,67.49
2018-03-26T08:54:04.324Z,67.30
2018-03-26T08:55:04.356Z,66.82
2018-03-26T08:56:04.372Z,66.06
2018-03-26T08:57:04.414Z,66.25
2018-03-26T08:58:04.406Z,65.77
2018-03-26T08:59:04.426Z,65.61
2018-03-26T09:00:04.436Z,64.47
2018-03-26T09:01:04.459Z,63.93
2018-03-26T09:02:04.472Z,63.07
2018-03-26T09:03:04.494Z,62.30
2018-03-26T09:04:04.506Z,61.89
2018-03-26T09:05:04.525Z,61.89
2018-03-26T09:06:04.616Z,62.46
2018-03-26T09:07:04.588Z,62.91
2018-03-26T09:08:04.587Z,63.57
2018-03-26T09:09:04.600Z,63.80
2018-03-26T09:10:04.618Z,62.11
2018-03-26T09:11:04.667Z,59.69
2018-03-26T09:12:04.683Z,58.61
2018-03-26T09:13:04.678Z,58.83
2018-03-26T09:14:04.696Z,58.54
2018-03-26T09:15:04.708Z,57.46
2018-03-26T09:16:04.747Z,58.70
2018-03-26T09:17:04.755Z,57.31
2018-03-26T09:18:04.767Z,56.57
2018-03-26T09:19:04.784Z,55.71
2018-03-26T09:20:04.831Z,55.42
2018-03-26T09:21:04.822Z,55.18
2018-03-26T09:22:04.855Z,57.34
2018-03-26T09:23:04.882Z,58.48
2018-03-26T09:24:04.913Z,58.80
2018-03-26T09:25:04.898Z,58.70
2018-03-26T09:26:04.923Z,58.20
2018-03-26T09:27:04.939Z,58.70
2018-03-26T09:28:04.979Z,58.36
2018-03-26T09:29:05.002Z,57.40
2018-03-26T09:30:05.023Z,56.57
2018-03-26T09:31:05.044Z,55.99
2018-03-26T09:32:05.076Z,55.61
2018-03-26T09:33:05.078Z,55.96
2018-03-26T09:34:05.134Z,56.70
2018-03-26T09:35:05.103Z,57.68
2018-03-26T09:36:05.186Z,56.45
2018-03-26T09:37:05.119Z,55.36
2018-03-26T09:38:05.143Z,56.04
2018-03-26T09:39:05.164Z,55.40
2018-03-26T09:40:05.208Z,55.11
2018-03-26T09:41:05.208Z,55.20
2018-03-26T09:42:05.211Z,54.22
2018-03-26T09:43:05.270Z,54.53
2018-03-26T09:44:05.258Z,54.53
2018-03-26T09:45:05.313Z,54.34
2018-03-26T09:46:05.295Z,54.18
2018-03-26T09:47:05.370Z,54.63
2018-03-26T09:48:05.337Z,54.50
2018-03-26T09:49:05.332Z,55.18
2018-03-26T09:50:05.380Z,55.58
2018-03-26T09:51:05.412Z,55.01
2018-03-26T09:52:05.400Z,55.20
2018-03-26T09:53:05.419Z,55.68
2018-03-26T09:54:05.438Z,55.11
2018-03-26T09:55:05.440Z,55.46
2018-03-26T09:56:05.475Z,56.13
2018-03-26T09:57:05.503Z,56.89
2018-03-26T09:58:05.505Z,56.89
2018-03-26T09:59:05.522Z,56.23
2018-03-26T10:00:05.596Z,56.06
2018-03-26T10:01:05.604Z,55.18
2018-03-26T10:02:05.587Z,55.30
2018-03-26T10:03:05.594Z,54.50
2018-03-26T10:04:05.616Z,55.01
2018-03-26T10:05:05.660Z,54.15
2018-03-26T10:06:05.667Z,54.63
2018-03-26T10:07:05.688Z,55.27
2018-03-26T10:08:05.714Z,55.84
2018-03-26T10:09:05.749Z,56.41
2018-03-26T10:10:05.715Z,55.87
2018-03-26T10:11:05.759Z,55.20
2018-03-26T10:12:05.749Z,55.58
2018-03-26T10:13:05.800Z,55.68
2018-03-26T10:14:05.859Z,55.20
2018-03-26T10:15:05.814Z,54.91
2018-03-26T10:16:05.892Z,55.11
2018-03-26T10:17:05.846Z,55.55
2018-03-26T10:18:05.881Z,56.04
2018-03-26T10:19:05.888Z,56.41
2018-03-26T10:20:05.949Z,56.89
2018-03-26T10:21:05.932Z,57.37
2018-03-26T10:22:05.956Z,57.37
2018-03-26T10:23:05.957Z,58.33
2018-03-26T10:24:05.981Z,58.14
2018-03-26T10:25:06.005Z,59.66
2018-03-26T10:26:06.017Z,58.80
2018-03-26T10:27:06.041Z,57.50
2018-03-26T10:28:06.049Z,56.76
2018-03-26T10:29:06.075Z,55.71
2018-03-26T10:30:06.106Z,55.35
2018-03-26T10:31:06.109Z,54.59
2018-03-26T10:32:06.124Z,54.56
2018-03-26T10:33:06.181Z,53.61
2018-03-26T10:34:06.162Z,53.70
2018-03-26T10:35:06.198Z,53.80
2018-03-26T10:36:06.198Z,53.51
2018-03-26T10:37:06.262Z,53.49
2018-03-26T10:38:06.238Z,53.61
2018-03-26T10:39:06.301Z,53.67
2018-03-26T10:40:06.275Z,53.32
2018-03-26T10:41:06.324Z,53.67
2018-03-26T10:42:06.338Z,54.44
2018-03-26T10:43:06.335Z,54.75
2018-03-26T10:44:06.390Z,53.70
2018-03-26T10:45:06.372Z,53.41
2018-03-26T10:46:06.417Z,53.41
2018-03-26T10:47:06.434Z,52.26
2018-03-26T10:48:06.427Z,52.24
2018-03-26T10:49:06.454Z,53.55
2018-03-26T10:50:06.501Z,55.20
2018-03-26T10:51:06.496Z,53.80
2018-03-26T10:52:06.496Z,52.62
2018-03-26T10:53:06.572Z,52.55
2018-03-26T10:54:06.533Z,52.65
2018-03-26T10:55:06.558Z,53.16
2018-03-26T10:56:06.574Z,52.48
2018-03-26T10:57:06.600Z,51.27
2018-03-26T10:58:06.619Z,50.00
2018-03-26T10:59:06.637Z,49.33
2018-03-26T11:00:06.662Z,49.40
2018-03-26T11:01:06.675Z,49.52
2018-03-26T11:02:06.682Z,49.52
2018-03-26T11:03:06.704Z,49.14
2018-03-26T11:04:06.738Z,49.43
2018-03-26T11:05:06.747Z,47.63
2018-03-26T11:06:06.774Z,47.32
2018-03-26T11:07:06.795Z,47.13
2018-03-26T11:08:06.807Z,47.61
2018-03-26T11:09:06.823Z,47.99
2018-03-26T11:10:06.842Z,48.57
2018-03-26T11:11:06.910Z,49.80
2018-03-26T11:12:06.902Z,49.45
2018-03-26T11:13:06.895Z,49.07
2018-03-26T11:14:06.926Z,48.30
2018-03-26T11:15:06.947Z,48.02
2018-03-26T11:16:06.979Z,48.57
2018-03-26T11:17:06.976Z,49.33
2018-03-26T11:18:06.994Z,48.66
2018-03-26T11:19:07.002Z,48.88
2018-03-26T11:20:07.037Z,47.53
2018-03-26T11:21:07.045Z,48.09
2018-03-26T11:22:07.078Z,49.23
2018-03-26T11:23:07.119Z,49.23
2018-03-26T11:24:07.104Z,50.19
2018-03-26T11:25:07.142Z,50.48
2018-03-26T11:26:07.159Z,50.67
2018-03-26T11:27:07.156Z,50.57
2018-03-26T11:28:07.189Z,49.98
2018-03-26T11:29:07.205Z,50.07
2018-03-26T11:30:07.237Z,49.49
2018-03-26T11:31:07.241Z,50.64
2018-03-26T11:32:07.275Z,48.07
2018-03-26T11:33:07.293Z,47.97
2018-03-26T11:34:07.309Z,48.85
2018-03-26T11:35:07.344Z,47.61
2018-03-26T11:36:07.339Z,47.52
2018-03-26T11:37:07.416Z,47.01
2018-03-26T11:38:07.395Z,46.06
2018-03-26T11:39:07.399Z,47.39
2018-03-26T11:40:07.409Z,47.49
2018-03-26T11:41:07.435Z,47.71
2018-03-26T11:42:07.459Z,47.13
2018-03-26T11:43:07.464Z,46.75
2018-03-26T11:44:07.497Z,48.75
2018-03-26T11:45:07.501Z,48.75
2018-03-26T11:46:07.531Z,48.83
2018-03-26T11:47:07.538Z,48.93
2018-03-26T11:48:07.597Z,48.54
2018-03-26T11:49:07.631Z,48.38
2018-03-26T11:50:07.602Z,49.02
2018-03-26T11:51:07.634Z,47.97
2018-03-26T11:52:07.641Z,48.16
2018-03-26T11:53:07.734Z,48.90
2018-03-26T11:54:07.685Z,47.49
2018-03-26T11:55:07.695Z,45.37
2018-03-26T11:56:07.714Z,43.95
2018-03-26T11:57:07.746Z,43.09
2018-03-26T11:58:07.758Z,42.69
2018-03-26T11:59:07.822Z,42.40
2018-03-26T12:00:07.794Z,42.11
2018-03-26T12:01:07.843Z,43.17
2018-03-26T12:02:07.876Z,43.29
2018-03-26T12:03:07.859Z,43.57
2018-03-26T12:04:07.887Z,44.15
2018-03-26T12:05:07.903Z,44.15
2018-03-26T12:06:07.922Z,44.34
2018-03-26T12:07:07.923Z,43.29
2018-03-26T12:08:07.944Z,42.71
2018-03-26T12:09:07.976Z,42.90
2018-03-26T12:10:07.987Z,42.52
2018-03-26T12:11:07.996Z,42.52
2018-03-26T12:12:08.021Z,41.75
2018-03-26T12:13:08.089Z,42.61
2018-03-26T12:14:08.078Z,41.38
2018-03-26T12:15:08.153Z,41.75
2018-03-26T12:16:08.088Z,42.79
2018-03-26T12:17:08.156Z,43.84
2018-03-26T12:18:08.136Z,44.79
2018-03-26T12:19:08.142Z,44.89
2018-03-26T12:20:08.166Z,45.37
2018-03-26T12:21:08.207Z,44.91
2018-03-26T12:22:08.221Z,44.81
2018-03-26T12:23:08.215Z,45.01
2018-03-26T12:24:08.262Z,44.62
2018-03-26T12:25:08.268Z,44.15
2018-03-26T12:26:08.275Z,44.62
2018-03-26T12:27:08.299Z,44.91
2018-03-26T12:28:08.398Z,45.77
2018-03-26T12:29:08.351Z,44.34
2018-03-26T12:30:08.348Z,41.93
2018-03-26T12:31:08.390Z,42.25
2018-03-26T12:32:08.416Z,42.24
2018-03-26T12:33:08.436Z,43.38
2018-03-26T12:34:08.425Z,44.36
2018-03-26T12:35:08.450Z,43.21
2018-03-26T12:36:08.463Z,43.88
2018-03-26T12:37:08.552Z,43.59
2018-03-26T12:38:08.530Z,42.64
2018-03-26T12:39:08.526Z,42.73
2018-03-26T12:40:08.550Z,42.64
2018-03-26T12:41:08.557Z,43.21
2018-03-26T12:42:08.623Z,43.30
2018-03-26T12:43:08.650Z,42.73
2018-03-26T12:44:08.620Z,42.44
2018-03-26T12:45:08.671Z,41.78
2018-03-26T12:46:08.662Z,42.90
2018-03-26T12:47:08.672Z,42.07
2018-03-26T12:48:08.744Z,42.54
2018-03-26T12:49:08.750Z,42.43
2018-03-26T12:50:08.736Z,42.81
2018-03-26T12:51:08.756Z,43.19
2018-03-26T12:52:08.803Z,43.19
2018-03-26T12:53:08.792Z,41.97